createdAt,value
2023-03-27T00:02:25.689Z,48.65
2023-03-27T00:04:54.853Z,48.32
2023-03-27T00:07:22.402Z,48.41
2023-03-27T00:09:49.326Z,48.33
2023-03-27T00:12:16.332Z,48.52
2023-03-27T00:14:43.338Z,48.44
2023-03-27T00:17:11.370Z,48.59
2023-03-27T00:19:39.096Z,48.60
2023-03-27T00:22:06.045Z,48.67
2023-03-27T00:24:34.783Z,48.57
2023-03-27T00:27:01.766Z,48.79
2023-03-27T00:29:28.963Z,48.54
2023-03-27T00:31:56.541Z,48.73
2023-03-27T00:34:23.507Z,48.70
2023-03-27T00:36:52.243Z,48.86
2023-03-27T00:39:19.548Z,48.97
2023-03-27T00:41:46.519Z,48.95
2023-03-27T00:44:34.739Z,48.79
2023-03-27T00:47:04.550Z,49.00
2023-03-27T00:49:36.284Z,49.23
2023-03-27T00:52:05.212Z,48.97
2023-03-27T00:54:39.144Z,49.43
2023-03-27T00:57:09.993Z,49.07
2023-03-27T00:59:41.158Z,49.12
2023-03-27T01:02:09.089Z,49.52
2023-03-27T01:04:38.060Z,49.27
2023-03-27T01:07:07.248Z,49.12
2023-03-27T01:09:34.474Z,49.13
2023-03-27T01:12:01.326Z,49.23
2023-03-27T01:14:52.647Z,49.36
2023-03-27T01:17:46.776Z,49.06
2023-03-27T01:20:35.194Z,49.51
2023-03-27T01:24:00.217Z,49.08
2023-03-27T01:26:52.024Z,49.75
2023-03-27T01:29:25.619Z,49.18
2023-03-27T01:32:30.365Z,49.20
2023-03-27T01:35:26.026Z,48.95
2023-03-27T01:38:04.862Z,49.09
2023-03-27T01:40:47.887Z,49.13
2023-03-27T01:43:19.773Z,49.91
2023-03-27T01:46:07.171Z,49.46
2023-03-27T01:48:43.136Z,49.13
2023-03-27T01:51:17.256Z,49.36
2023-03-27T01:53:52.946Z,49.77
2023-03-27T01:56:31.717Z,49.42
2023-03-27T01:59:09.738Z,49.68
2023-03-27T02:01:40.353Z,49.59
2023-03-27T02:04:15.940Z,49.52
2023-03-27T02:06:50.663Z,49.68
2023-03-27T02:09:24.322Z,49.97
2023-03-27T02:11:59.361Z,49.46
2023-03-27T02:14:33.977Z,49.71
2023-03-27T02:17:10.468Z,49.70
2023-03-27T02:19:57.225Z,49.67
2023-03-27T02:22:38.046Z,49.76
2023-03-27T02:25:24.627Z,49.68
2023-03-27T02:28:03.366Z,49.58
2023-03-27T02:30:34.271Z,50.33
2023-03-27T02:33:30.319Z,49.98
2023-03-27T02:36:00.762Z,50.12
2023-03-27T02:38:40.198Z,50.13
2023-03-27T02:41:48.566Z,49.89
2023-03-27T02:44:21.320Z,50.09
2023-03-27T02:46:58.061Z,50.26
2023-03-27T02:49:49.094Z,50.27
2023-03-27T02:52:52.396Z,50.36
2023-03-27T02:55:35.930Z,50.39
2023-03-27T02:58:11.383Z,50.41
2023-03-27T03:00:44.116Z,50.42
2023-03-27T03:03:19.366Z,50.59
2023-03-27T03:05:46.768Z,50.33
2023-03-27T03:08:15.051Z,50.75
2023-03-27T03:10:46.341Z,50.27
2023-03-27T03:13:13.349Z,50.82
2023-03-27T03:15:40.611Z,50.22
2023-03-27T03:18:08.131Z,50.61
2023-03-27T03:20:35.836Z,50.79
2023-03-27T03:23:03.167Z,50.51
2023-03-27T03:25:31.700Z,50.43
2023-03-27T03:27:58.770Z,50.42
2023-03-27T03:30:27.799Z,50.51
2023-03-27T03:32:58.169Z,50.45
2023-03-27T03:35:25.870Z,50.70
2023-03-27T03:37:58.070Z,50.49
2023-03-27T03:40:24.980Z,50.52
2023-03-27T03:42:53.012Z,50.51
2023-03-27T03:45:20.535Z,50.64
2023-03-27T03:47:48.086Z,50.96
2023-03-27T03:50:15.200Z,50.59
2023-03-27T03:52:42.294Z,50.57
2023-03-27T03:55:12.813Z,50.73
2023-03-27T03:57:39.791Z,50.59
2023-03-27T04:00:12.527Z,50.46
2023-03-27T04:02:41.691Z,50.65
2023-03-27T04:05:10.100Z,50.97
2023-03-27T04:07:38.002Z,50.53
2023-03-27T04:10:05.387Z,50.63
2023-03-27T04:12:32.280Z,50.52
2023-03-27T04:14:59.231Z,50.39
2023-03-27T04:17:26.878Z,50.44
2023-03-27T04:19:57.617Z,50.48
2023-03-27T04:22:24.893Z,50.73
2023-03-27T04:24:51.935Z,50.63
2023-03-27T04:27:18.885Z,50.16
2023-03-27T04:29:47.704Z,49.56
2023-03-27T04:32:19.530Z,50.01
2023-03-27T04:34:50.557Z,50.57
2023-03-27T04:37:23.166Z,50.32
2023-03-27T04:39:50.666Z,50.31
2023-03-27T04:42:17.573Z,50.03
2023-03-27T04:44:46.460Z,50.39
2023-03-27T04:47:13.656Z,50.26
2023-03-27T04:49:47.190Z,50.25
2023-03-27T04:52:14.492Z,50.09
2023-03-27T04:54:42.375Z,49.90
2023-03-27T04:57:10.525Z,50.03
2023-03-27T04:59:37.683Z,49.45
2023-03-27T05:02:05.962Z,49.21
2023-03-27T05:04:33.043Z,48.33
2023-03-27T05:07:00.620Z,46.40
2023-03-27T05:09:27.656Z,45.77
2023-03-27T05:11:54.549Z,45.76
2023-03-27T05:14:23.365Z,47.58
2023-03-27T05:16:52.562Z,47.81
2023-03-27T05:19:20.461Z,48.19
2023-03-27T05:21:47.628Z,48.07
2023-03-27T05:24:16.006Z,48.80
2023-03-27T05:26:43.641Z,49.35
2023-03-27T05:29:10.816Z,41.98
2023-03-27T05:31:37.808Z,43.52
2023-03-27T05:34:06.057Z,44.85
2023-03-27T05:36:33.304Z,45.91
2023-03-27T05:39:00.345Z,46.58
2023-03-27T05:41:27.285Z,46.71
2023-03-27T05:43:54.344Z,47.03
2023-03-27T05:46:21.793Z,47.15
2023-03-27T05:48:49.241Z,47.57
2023-03-27T05:51:16.335Z,47.74
2023-03-27T05:53:43.416Z,48.05
2023-03-27T05:56:10.882Z,47.84
2023-03-27T05:58:39.101Z,47.89
2023-03-27T06:01:06.271Z,48.18
2023-03-27T06:03:36.924Z,47.81
2023-03-27T06:06:11.776Z,48.09
2023-03-27T06:08:39.170Z,48.44
2023-03-27T06:11:13.657Z,49.07
2023-03-27T06:13:40.691Z,49.08
2023-03-27T06:16:08.392Z,49.73
2023-03-27T06:18:35.486Z,49.64
2023-03-27T06:21:02.421Z,49.32
2023-03-27T06:23:29.994Z,49.42
2023-03-27T06:25:57.172Z,49.54
2023-03-27T06:28:24.378Z,45.34
2023-03-27T06:30:51.531Z,42.06
2023-03-27T06:33:18.846Z,41.57
2023-03-27T06:35:53.449Z,40.88
2023-03-27T06:38:21.567Z,40.06
2023-03-27T06:40:48.539Z,40.27
2023-03-27T06:43:19.286Z,40.76
2023-03-27T06:45:50.223Z,41.91
2023-03-27T06:48:21.921Z,43.02
2023-03-27T06:50:52.038Z,44.03
2023-03-27T06:53:27.329Z,44.96
2023-03-27T06:55:55.808Z,45.33
2023-03-27T06:58:23.072Z,46.02
2023-03-27T07:00:50.595Z,46.61
2023-03-27T07:03:19.518Z,46.96
2023-03-27T07:05:46.680Z,47.34
2023-03-27T07:08:23.225Z,47.84
2023-03-27T07:11:03.822Z,47.96
2023-03-27T07:13:38.481Z,48.28
2023-03-27T07:16:06.269Z,48.50
2023-03-27T07:18:33.365Z,48.64
2023-03-27T07:21:00.875Z,48.80
2023-03-27T07:23:28.186Z,49.25
2023-03-27T07:26:00.152Z,49.20
2023-03-27T07:28:28.286Z,49.05
2023-03-27T07:30:55.556Z,49.36
2023-03-27T07:33:23.173Z,49.38
2023-03-27T07:35:50.309Z,49.44
2023-03-27T07:38:18.657Z,49.64
2023-03-27T07:40:46.826Z,49.83
2023-03-27T07:43:14.654Z,50.16
2023-03-27T07:45:42.427Z,50.06
2023-03-27T07:48:15.214Z,50.04
2023-03-27T07:50:43.478Z,49.98
2023-03-27T07:53:34.305Z,50.36
2023-03-27T07:56:01.018Z,50.41
2023-03-27T07:58:28.257Z,50.50
2023-03-27T08:01:02.700Z,50.52
2023-03-27T08:03:31.356Z,50.51
2023-03-27T08:06:00.570Z,50.77
2023-03-27T08:08:28.801Z,51.07
2023-03-27T08:10:57.468Z,50.81
2023-03-27T08:13:24.752Z,51.36
2023-03-27T08:15:52.195Z,51.21
2023-03-27T08:18:19.363Z,51.25
2023-03-27T08:20:48.191Z,51.24
2023-03-27T08:23:15.707Z,50.99
2023-03-27T08:25:43.226Z,50.83
2023-03-27T08:28:10.250Z,51.18
2023-03-27T08:30:37.660Z,50.94
2023-03-27T08:33:05.253Z,51.13
2023-03-27T08:35:32.822Z,50.81
2023-03-27T08:37:59.785Z,50.81
2023-03-27T08:40:29.534Z,51.00
2023-03-27T08:43:02.398Z,50.59
2023-03-27T08:45:55.107Z,50.66
2023-03-27T08:48:51.162Z,50.61
2023-03-27T08:51:25.715Z,50.34
2023-03-27T08:54:08.363Z,50.39
2023-03-27T08:56:37.939Z,50.41
2023-03-27T08:59:12.089Z,50.21
2023-03-27T09:01:51.558Z,50.43
2023-03-27T09:04:32.293Z,50.25
2023-03-27T09:07:29.919Z,50.10
2023-03-27T09:09:59.903Z,50.08
2023-03-27T09:13:05.579Z,50.21
2023-03-27T09:15:48.641Z,50.11
2023-03-27T09:18:31.595Z,50.13
2023-03-27T09:21:20.179Z,50.08
2023-03-27T09:23:49.534Z,50.12
2023-03-27T09:26:36.255Z,49.93
2023-03-27T09:29:22.615Z,49.94
2023-03-27T09:31:52.590Z,49.80
2023-03-27T09:34:28.072Z,50.03
2023-03-27T09:36:56.338Z,50.14
2023-03-27T09:39:32.946Z,49.89
2023-03-27T09:42:09.615Z,49.95
2023-03-27T09:44:41.995Z,49.93
2023-03-27T09:48:01.790Z,50.05
2023-03-27T09:50:41.883Z,50.20
2023-03-27T09:53:10.801Z,50.08
2023-03-27T09:55:46.149Z,50.02
2023-03-27T09:58:31.513Z,50.27
2023-03-27T10:01:17.303Z,50.42
2023-03-27T10:03:53.437Z,50.39
2023-03-27T10:06:31.358Z,50.23
2023-03-27T10:09:07.482Z,50.28
2023-03-27T10:11:36.396Z,50.17
2023-03-27T10:14:13.891Z,50.23
2023-03-27T10:16:42.767Z,50.25
2023-03-27T10:19:24.000Z,50.17
2023-03-27T10:21:51.611Z,50.09
2023-03-27T10:24:28.386Z,50.04
2023-03-27T10:27:06.255Z,50.22
2023-03-27T10:29:35.644Z,50.39
2023-03-27T10:32:06.251Z,50.07
2023-03-27T10:34:40.256Z,50.22
2023-03-27T10:37:30.121Z,50.28
2023-03-27T10:40:02.652Z,50.22
2023-03-27T10:42:32.948Z,50.29
2023-03-27T10:45:01.178Z,50.13
2023-03-27T10:47:32.456Z,50.53
2023-03-27T10:50:08.762Z,50.36
2023-03-27T10:52:53.494Z,50.40
2023-03-27T10:55:29.251Z,50.48
2023-03-27T10:58:00.986Z,50.66
2023-03-27T11:00:39.472Z,50.53
2023-03-27T11:03:36.096Z,50.38
2023-03-27T11:06:08.229Z,50.88
2023-03-27T11:08:50.113Z,50.61
2023-03-27T11:11:23.180Z,50.45
2023-03-27T11:13:50.343Z,50.45
2023-03-27T11:16:27.656Z,50.64
2023-03-27T11:19:14.684Z,50.36
2023-03-27T11:21:54.130Z,50.47
2023-03-27T11:24:44.559Z,50.14
2023-03-27T11:27:21.420Z,50.23
2023-03-27T11:30:05.528Z,50.13
2023-03-27T11:32:41.578Z,50.15
2023-03-27T11:35:15.191Z,49.96
2023-03-27T11:37:54.120Z,49.97
2023-03-27T11:40:31.012Z,50.06
2023-03-27T11:42:58.182Z,49.83
2023-03-27T11:45:28.735Z,49.76
2023-03-27T11:48:11.008Z,49.72
2023-03-27T11:51:02.067Z,49.70
2023-03-27T11:53:48.565Z,49.87
2023-03-27T11:56:39.246Z,49.69
2023-03-27T11:59:40.670Z,49.70
2023-03-27T12:02:49.715Z,49.60
2023-03-27T12:05:28.609Z,49.72
2023-03-27T12:08:10.820Z,49.76
2023-03-27T12:10:39.705Z,49.87
2023-03-27T12:13:40.555Z,49.83
2023-03-27T12:16:33.216Z,49.95
2023-03-27T12:19:10.755Z,49.85
2023-03-27T12:21:47.029Z,49.88
2023-03-27T12:24:25.818Z,49.70
2023-03-27T12:27:05.872Z,49.90
2023-03-27T12:30:03.569Z,49.70
2023-03-27T12:32:39.675Z,49.76
2023-03-27T12:35:21.426Z,49.93
2023-03-27T12:37:59.233Z,49.86
2023-03-27T12:40:41.512Z,49.83
2023-03-27T12:43:27.260Z,49.96
2023-03-27T12:46:25.382Z,49.71
2023-03-27T12:49:14.345Z,49.86
2023-03-27T12:52:04.820Z,49.87
2023-03-27T12:54:34.536Z,49.92
2023-03-27T12:57:25.452Z,49.84
2023-03-27T12:59:59.542Z,49.74
2023-03-27T13:02:26.796Z,49.78
2023-03-27T13:05:35.730Z,49.57
2023-03-27T13:08:39.353Z,49.13
2023-03-27T13:11:27.696Z,49.43
2023-03-27T13:14:27.538Z,49.25
2023-03-27T13:17:12.892Z,49.83
2023-03-27T13:19:58.633Z,49.33
2023-03-27T13:22:25.674Z,49.47
2023-03-27T13:25:16.355Z,49.31
2023-03-27T13:28:11.175Z,49.32
2023-03-27T13:30:44.373Z,49.55
2023-03-27T13:33:36.204Z,49.36
2023-03-27T13:36:25.079Z,49.33
2023-03-27T13:38:55.395Z,49.62
2023-03-27T13:41:43.940Z,49.34
2023-03-27T13:44:16.020Z,49.65
2023-03-27T13:46:50.005Z,49.40
2023-03-27T13:49:35.524Z,49.18
2023-03-27T13:52:17.333Z,49.10
2023-03-27T13:55:11.141Z,49.46
2023-03-27T13:58:02.879Z,49.17
2023-03-27T14:00:29.972Z,49.35
2023-03-27T14:03:35.513Z,49.32
2023-03-27T14:06:09.975Z,49.95
2023-03-27T14:09:13.735Z,49.68
2023-03-27T14:12:15.447Z,50.01
2023-03-27T14:14:56.107Z,49.79
2023-03-27T14:17:41.459Z,49.87
2023-03-27T14:20:23.157Z,49.68
2023-03-27T14:22:57.419Z,49.69
2023-03-27T14:25:30.801Z,49.56
2023-03-27T14:27:58.507Z,49.93
2023-03-27T14:30:55.073Z,50.10
2023-03-27T14:33:22.450Z,50.13
2023-03-27T14:36:02.717Z,50.04
2023-03-27T14:38:31.530Z,50.07
2023-03-27T14:41:01.783Z,50.28
2023-03-27T14:43:32.219Z,50.18
2023-03-27T14:46:06.516Z,50.44
2023-03-27T14:48:34.032Z,50.65
2023-03-27T14:51:08.889Z,50.23
2023-03-27T14:53:45.701Z,50.42
2023-03-27T14:56:38.597Z,50.31
2023-03-27T14:59:16.133Z,50.56
2023-03-27T15:01:43.619Z,50.21
2023-03-27T15:04:14.538Z,50.16
2023-03-27T15:06:42.181Z,50.37
2023-03-27T15:09:19.520Z,50.25
2023-03-27T15:11:54.991Z,50.24
2023-03-27T15:14:30.177Z,50.31
2023-03-27T15:17:07.220Z,50.42
2023-03-27T15:19:43.784Z,50.23
2023-03-27T15:23:01.536Z,42.33
2023-03-27T15:25:43.012Z,40.41
2023-03-27T15:28:24.971Z,41.96
2023-03-27T15:30:56.570Z,42.18
2023-03-27T15:33:37.127Z,42.80
2023-03-27T15:36:22.857Z,43.64
2023-03-27T15:38:58.982Z,44.09
2023-03-27T15:41:37.361Z,44.62
2023-03-27T15:44:06.126Z,40.27
2023-03-27T15:46:44.350Z,40.36
2023-03-27T15:49:23.512Z,39.91
2023-03-27T15:51:50.700Z,39.17
2023-03-27T15:54:28.448Z,40.29
2023-03-27T15:57:09.717Z,41.43
2023-03-27T15:59:51.999Z,42.50
2023-03-27T16:02:24.408Z,43.14
2023-03-27T16:04:55.681Z,43.70
2023-03-27T16:07:28.400Z,43.99
2023-03-27T16:10:00.133Z,44.61
2023-03-27T16:12:50.843Z,44.92
2023-03-27T16:15:42.527Z,45.25
2023-03-27T16:18:24.779Z,45.51
2023-03-27T16:20:51.966Z,45.39
2023-03-27T16:23:19.029Z,45.60
2023-03-27T16:25:46.197Z,45.90
2023-03-27T16:28:14.666Z,45.90
2023-03-27T16:30:42.510Z,46.23
2023-03-27T16:33:15.791Z,46.61
2023-03-27T16:35:44.581Z,46.49
2023-03-27T16:38:12.240Z,46.52
2023-03-27T16:40:39.541Z,46.71
2023-03-27T16:43:06.969Z,44.03
2023-03-27T16:45:34.339Z,41.25
2023-03-27T16:48:01.526Z,39.92
2023-03-27T16:50:31.113Z,38.19
2023-03-27T16:52:58.133Z,37.16
2023-03-27T16:55:25.652Z,36.93
2023-03-27T16:57:56.186Z,35.99
2023-03-27T17:00:23.808Z,35.99
2023-03-27T17:02:51.232Z,35.31
2023-03-27T17:05:18.577Z,34.95
2023-03-27T17:07:47.167Z,35.02
2023-03-27T17:10:15.177Z,34.69
2023-03-27T17:12:42.548Z,34.89
2023-03-27T17:15:10.094Z,34.50
2023-03-27T17:17:37.275Z,34.50
2023-03-27T17:20:07.964Z,34.11
2023-03-27T17:22:35.568Z,34.32
2023-03-27T17:25:06.127Z,34.29
2023-03-27T17:27:34.173Z,34.32
2023-03-27T17:30:01.412Z,34.60
2023-03-27T17:32:28.699Z,34.54
2023-03-27T17:34:56.305Z,35.11
2023-03-27T17:37:24.286Z,35.68
2023-03-27T17:39:51.534Z,36.61
2023-03-27T17:42:18.699Z,37.60
2023-03-27T17:44:45.765Z,38.45
2023-03-27T17:47:13.670Z,39.43
2023-03-27T17:49:43.724Z,39.88
2023-03-27T17:52:12.543Z,40.41
2023-03-27T17:54:40.738Z,40.80
2023-03-27T17:57:07.909Z,40.99
2023-03-27T17:59:36.799Z,41.73
2023-03-27T18:02:05.683Z,42.65
2023-03-27T18:04:33.582Z,42.26
2023-03-27T18:07:00.815Z,42.37
2023-03-27T18:09:28.914Z,42.67
2023-03-27T18:11:56.206Z,43.38
2023-03-27T18:14:23.423Z,43.23
2023-03-27T18:16:52.070Z,43.53
2023-03-27T18:19:20.029Z,38.07
2023-03-27T18:21:47.975Z,37.40
2023-03-27T18:24:16.678Z,37.18
2023-03-27T18:26:44.086Z,36.79
2023-03-27T18:29:12.527Z,37.81
2023-03-27T18:31:40.900Z,39.11
2023-03-27T18:34:09.366Z,40.11
2023-03-27T18:36:36.494Z,41.37
2023-03-27T18:39:05.071Z,41.94
2023-03-27T18:41:33.404Z,43.23
2023-03-27T18:44:00.649Z,44.03
2023-03-27T18:46:28.382Z,44.18
2023-03-27T18:48:56.001Z,43.44
2023-03-27T18:51:24.375Z,43.80
2023-03-27T18:53:51.602Z,44.46
2023-03-27T18:56:19.160Z,45.59
2023-03-27T18:58:47.658Z,45.67
2023-03-27T19:01:14.960Z,46.02
2023-03-27T19:03:42.940Z,45.56
2023-03-27T19:06:12.627Z,46.55
2023-03-27T19:08:42.506Z,46.59
2023-03-27T19:11:11.933Z,46.56
2023-03-27T19:13:39.044Z,46.82
2023-03-27T19:16:19.857Z,46.04
2023-03-27T19:18:47.289Z,46.37
2023-03-27T19:21:16.582Z,46.20
2023-03-27T19:23:43.832Z,45.89
2023-03-27T19:26:16.277Z,46.42
2023-03-27T19:28:49.412Z,45.90
2023-03-27T19:31:17.764Z,46.01
2023-03-27T19:33:49.231Z,46.70
2023-03-27T19:36:17.862Z,46.25
2023-03-27T19:38:45.348Z,46.23
2023-03-27T19:41:13.472Z,45.88
2023-03-27T19:43:42.924Z,45.93
2023-03-27T19:48:41.610Z,46.18
2023-03-27T19:51:09.316Z,46.11
2023-03-27T19:53:38.790Z,45.78
2023-03-27T19:56:07.999Z,45.66
2023-03-27T19:58:36.484Z,45.87
2023-03-27T20:01:05.253Z,45.61
2023-03-27T20:03:34.412Z,46.02
2023-03-27T20:06:06.813Z,46.25
2023-03-27T20:08:40.023Z,46.13
2023-03-27T20:11:07.655Z,46.43
2023-03-27T20:13:42.378Z,46.09
2023-03-27T20:16:14.872Z,46.13
2023-03-27T20:18:43.769Z,46.03
2023-03-27T20:21:15.578Z,46.17
2023-03-27T20:23:44.017Z,46.27
2023-03-27T20:26:12.822Z,45.96
2023-03-27T20:28:43.739Z,45.50
2023-03-27T20:31:12.894Z,46.32
2023-03-27T20:33:42.351Z,46.09
2023-03-27T20:36:10.405Z,45.73
2023-03-27T20:38:38.240Z,45.84
2023-03-27T20:41:07.401Z,45.83
2023-03-27T20:43:41.580Z,45.98
2023-03-27T20:46:13.073Z,45.96
2023-03-27T20:48:42.966Z,45.87
2023-03-27T20:51:25.056Z,45.65
2023-03-27T20:53:56.641Z,45.69
2023-03-27T20:56:24.593Z,45.42
2023-03-27T20:58:52.607Z,45.54
2023-03-27T21:01:20.154Z,45.54
2023-03-27T21:03:50.122Z,45.54
2023-03-27T21:06:23.490Z,45.42
2023-03-27T21:08:55.150Z,45.20
2023-03-27T21:11:22.251Z,44.72
2023-03-27T21:13:50.906Z,44.35
2023-03-27T21:16:18.324Z,43.60
2023-03-27T21:18:45.760Z,44.26
2023-03-27T21:21:13.172Z,44.50
2023-03-27T21:23:40.291Z,44.53
2023-03-27T21:26:08.089Z,41.80
2023-03-27T21:28:35.332Z,42.79
2023-03-27T21:31:07.704Z,44.69
2023-03-27T21:33:35.080Z,45.05
2023-03-27T21:36:03.025Z,45.24
2023-03-27T21:38:31.004Z,45.30
2023-03-27T21:40:58.168Z,45.62
2023-03-27T21:43:25.430Z,45.49
2023-03-27T21:45:52.541Z,45.55
2023-03-27T21:48:19.715Z,45.70
2023-03-27T21:50:47.588Z,45.94
2023-03-27T21:53:15.191Z,45.96
2023-03-27T21:55:42.947Z,45.96
2023-03-27T21:58:10.162Z,46.35
2023-03-27T22:00:37.443Z,46.16
2023-03-27T22:03:04.655Z,46.11
2023-03-27T22:05:32.022Z,46.21
2023-03-27T22:07:59.369Z,46.28
2023-03-27T22:10:26.834Z,46.40
2023-03-27T22:12:53.909Z,46.58
2023-03-27T22:15:21.013Z,46.52
2023-03-27T22:17:49.451Z,46.51
2023-03-27T22:20:16.786Z,46.48
2023-03-27T22:22:43.976Z,46.55
2023-03-27T22:25:11.179Z,46.93
2023-03-27T22:27:39.772Z,46.76
2023-03-27T22:30:08.550Z,47.42
2023-03-27T22:32:36.087Z,47.57
2023-03-27T22:35:03.203Z,47.15
2023-03-27T22:37:30.190Z,47.50
2023-03-27T22:39:57.272Z,47.45
2023-03-27T22:42:24.231Z,47.50
2023-03-27T22:44:51.677Z,47.66
2023-03-27T22:47:18.860Z,47.82
2023-03-27T22:49:45.908Z,47.89
2023-03-27T22:52:12.880Z,47.98
2023-03-27T22:54:40.558Z,47.92
2023-03-27T22:57:08.082Z,47.91
2023-03-27T22:59:35.643Z,48.26
2023-03-27T23:02:02.753Z,48.37
2023-03-27T23:04:29.800Z,48.40
2023-03-27T23:06:56.775Z,48.23
2023-03-27T23:09:23.709Z,48.33
2023-03-27T23:11:50.971Z,48.34
2023-03-27T23:14:17.947Z,48.60
2023-03-27T23:16:44.973Z,48.71
2023-03-27T23:19:11.986Z,48.92
2023-03-27T23:21:38.998Z,48.69
2023-03-27T23:24:06.368Z,48.97
2023-03-27T23:26:33.323Z,49.03
2023-03-27T23:29:00.249Z,49.06
2023-03-27T23:31:27.274Z,49.02
2023-03-27T23:33:54.197Z,49.21
2023-03-27T23:36:23.927Z,49.08
2023-03-27T23:38:52.593Z,49.25
2023-03-27T23:41:20.690Z,49.10
2023-03-27T23:43:48.614Z,49.24
2023-03-27T23:46:15.902Z,49.42
2023-03-27T23:48:44.011Z,49.30
2023-03-27T23:51:12.435Z,49.74
2023-03-27T23:53:39.753Z,49.41
2023-03-27T23:56:07.269Z,49.40
2023-03-27T23:58:34.370Z,49.76
